Aérodrome :
LOGIN :

S'inscrire | Disclaimer

   EN    FR    IT 

 










Légende :    VFR   VFR Marginal   IFR   IFR Intensif   IFR Très Intensif
Visi : 
Plafond : 
>= 8 km
>= 3000ft
5 à 8 km
1000 à 3000 ft
1500m à 5 km
500 à 1000 ft
800 à 1500m
200 à 500 ft
< 800m
< 200 ft
Symboles :   Orages  Brouillard  Fortes neiges  Fortes précipitations  Vent > 20 kt
SIGMETs :   Divers  Orages  Givrage  Turbulence  Onde Orograph.  Cendres Volcan.







- Altitude de l'aérodrome : 939 ft


LKKB - Kbely Air Base

DERNIER METAR :
  • 171900Z 22015KT 9999 BKN037 06/M01 Q1003 NOSIG

METARs EXPIRÉS :
  • 171800Z 23014KT 9999 BKN032 07/M00 Q1003 NOSIG
  • 171700Z 22013KT 9999 BKN029 BKN038 07/00 Q1003 NOSIG
  • 171600Z 22014KT 9999 OVC031 07/01 Q1002 NOSIG

TAF TAF LKKB
Valide du 17 à 18h jusqu'au 18 à 18h UTC


171700Z 1718/1818 22014KT 9999 SCT030
TEMPO 1718/1722 24020KT BKN027
BECMG 1806/1808 31008KT
TEMPO 1806/1812 32010G20KT 6000 -SN BKN024
TEMPO 1812/1818 BKN027
Pas de NOTAMs connus pour ce terrain.



MET'MAP, la Météo Aéronautique d'un coup d'oeil ! - Copyright ORBIFLY Décembre 2007 - Disclaimer

ORBIFLY MET'MAP TEAM :

Programmation & Développement : Alexandra Zaïnal
Conception & Développement : Baudouin d'Aumeries
Co-Programmation & Développement : Marc-Olivier Méhu
Soutien technique & logistique : Manuel Goepfert

Contact : metmap@orbifly.com




SOURCES & CREDITS :

   NOAA